Oxford, NC

9:43 PM EST on November 22, 2019 (GMT -0500)
Henderson-Oxford

Weather History for KHNZ - August, 2019

Change the Weather History Date:

Thursday, August 1, 2019

  Actual Average (KTDF) Record (KTDF)
Temperature  
Mean Temperature 74 °F -  
Max Temperature 88 °F 88 °F 100 °F (2002)
Min Temperature 61 °F 63 °F 53 °F (1966)
Cooling Degree Days 10    
Growing Degree Days 24 (Base 50)    
Moisture  
Dew Point 64 °F    
Average Humidity 73    
Maximum Humidity 97    
Minimum Humidity 46    
Precipitation  
Precipitation 0.00 in - - ()
Sea Level Pressure  
Sea Level Pressure 30.09 in    
Wind  
Wind Speed 0 mph (North)    
Max Wind Speed 0 mph    
Max Gust Speed -    
Visibility 10 miles    
Events      
Averages and records for this station are not official NWS values.
T = Trace of Precipitation, MM = Missing Value Source: NWS Daily Summary

Daily Weather History Graph

Daily Weather History Graph

Search for Another Location

Airport or City:

Astronomy

Aug. 01, 2019 Rise Set
Actual Time 6:20 AM EDT 8:19 PM EDT
Civil Twilight 5:52 AM EDT 8:48 PM EDT
Nautical Twilight 5:17 AM EDT 9:22 PM EDT
Astronomical Twilight 4:40 AM EDT 9:59 PM EDT
Moon 6:43 AM EDT (8/1) 9:06 PM EDT (8/1)
Length of Visible Light 14h 56m
Length of Day
13h 59m
New Moon, 0% of the Moon is Illuminated
Aug 1
New Moon
Aug 7
First Quarter
Aug 15
Full
Aug 23
Last Quarter
Aug 30
New

Hourly Weather History & Observations

Time (EDT) Temp. Heat Index Dew Point Humidity Pressure Visibility Wind Dir Wind Speed Gust Speed Precip Events Conditions
12:15 AM 65.7 °F - 61.0 °F 85% 30.07 in 10.0 mi Calm Calm - N/A   Clear
12:35 AM 65.3 °F - 61.0 °F 86% 30.07 in 10.0 mi Calm Calm - N/A   Clear
12:55 AM 65.5 °F - 61.0 °F 85% 30.07 in 10.0 mi Calm Calm - N/A   Clear
1:15 AM 64.0 °F - 61.3 °F 91% 30.09 in 10.0 mi Calm Calm - N/A   Clear
1:35 AM 64.4 °F - 60.6 °F 88% 30.09 in 10.0 mi Calm Calm - N/A   Clear
1:55 AM 63.9 °F - 60.4 °F 89% 30.09 in 10.0 mi Calm Calm - N/A   Clear
2:15 AM 63.9 °F - 60.4 °F 89% 30.10 in 10.0 mi Calm Calm - N/A   Clear
2:35 AM 63.7 °F - 60.3 °F 89% 30.11 in 10.0 mi Calm Calm - N/A   Clear
2:55 AM 63.3 °F - 60.4 °F 90% 30.11 in 10.0 mi Calm Calm - N/A   Clear
3:15 AM 62.4 °F - 60.6 °F 94% 30.11 in 10.0 mi Calm Calm - N/A   Scattered Clouds
3:35 AM 62.8 °F - 60.4 °F 92% 30.10 in 10.0 mi Calm Calm - N/A   Scattered Clouds
3:55 AM 62.6 °F - 60.4 °F 93% 30.09 in 10.0 mi Calm Calm - N/A   Clear
4:15 AM 62.4 °F - 60.8 °F 94% 30.08 in 10.0 mi Calm Calm - N/A   Clear
4:35 AM 62.6 °F - 60.6 °F 93% 30.08 in 10.0 mi Calm Calm - N/A   Clear
4:55 AM 62.1 °F - 60.8 °F 96% 30.08 in 10.0 mi Calm Calm - N/A   Clear
5:15 AM 62.2 °F - 60.6 °F 94% 30.08 in 10.0 mi Calm Calm - N/A   Clear
5:35 AM 61.9 °F - 60.6 °F 96% 30.08 in 10.0 mi Calm Calm - N/A   Clear
5:55 AM 61.7 °F - 60.8 °F 97% 30.08 in 10.0 mi Calm Calm - N/A   Clear
6:15 AM 61.9 °F - 60.8 °F 96% 30.08 in 10.0 mi Calm Calm - N/A   Clear
6:35 AM 62.4 °F - 60.8 °F 94% 30.09 in 10.0 mi Calm Calm - N/A   Clear
6:55 AM 62.6 °F - 61.5 °F 96% 30.09 in 10.0 mi Calm Calm - N/A   Clear
7:15 AM 64.2 °F - 62.6 °F 94% 30.09 in 10.0 mi Calm Calm - N/A   Clear
7:35 AM 65.3 °F - 62.6 °F 91% 30.10 in 10.0 mi Calm Calm - N/A   Clear
7:55 AM 66.4 °F - 63.0 °F 89% 30.10 in 10.0 mi Calm Calm - N/A   Clear
8:15 AM 67.6 °F - 62.8 °F 84% 30.11 in 10.0 mi Calm Calm - N/A   Clear
8:35 AM 69.8 °F - 63.7 °F 81% 30.11 in 10.0 mi Calm Calm - N/A   Clear
8:55 AM 72.5 °F - 64.0 °F 75% 30.11 in 10.0 mi Calm Calm - N/A   Clear
9:15 AM 74.1 °F - 64.2 °F 71% 30.11 in 10.0 mi Calm Calm - N/A   Clear
9:35 AM 76.5 °F - 64.0 °F 65% 30.11 in 10.0 mi Calm Calm - N/A   Clear
9:55 AM 77.4 °F - 63.3 °F 62% 30.12 in 10.0 mi Calm Calm - N/A   Clear
10:15 AM 79.0 °F - 63.9 °F 60% 30.12 in 10.0 mi Calm Calm - N/A   Clear
10:35 AM 79.9 °F - 62.8 °F 56% 30.12 in 10.0 mi Calm Calm - N/A   Clear
10:55 AM 80.1 °F 81.2 °F 61.9 °F 54% 30.13 in 10.0 mi Calm Calm - N/A   Clear
11:15 AM 82.0 °F 83.4 °F 63.7 °F 54% 30.13 in 10.0 mi Calm Calm - N/A   Clear
11:35 AM 82.0 °F 83.3 °F 63.3 °F 53% 30.13 in 10.0 mi Calm Calm - N/A   Clear
11:55 AM 82.8 °F 84.0 °F 63.7 °F 52% 30.13 in 10.0 mi Calm Calm - N/A   Clear
12:15 PM 83.3 °F 84.6 °F 64.2 °F 52% 30.13 in 10.0 mi Calm Calm - N/A   Clear
12:35 PM 83.5 °F 84.7 °F 63.7 °F 51% 30.12 in 10.0 mi Calm Calm - N/A   Clear
12:55 PM 83.8 °F 85.1 °F 64.2 °F 51% 30.12 in 10.0 mi Calm Calm - N/A   Clear
1:15 PM 84.2 °F 85.6 °F 64.4 °F 51% 30.12 in 10.0 mi Calm Calm - N/A   Clear
1:35 PM 85.3 °F 87.1 °F 65.3 °F 51% 30.11 in 10.0 mi Calm Calm - N/A   Clear
1:55 PM 85.3 °F 86.8 °F 64.9 °F 50% 30.11 in 10.0 mi Calm Calm - N/A   Clear
2:15 PM 86.2 °F 87.6 °F 64.4 °F 48% 30.10 in 10.0 mi Calm Calm - N/A   Clear
2:35 PM 86.2 °F 87.6 °F 64.4 °F 48% 30.09 in 10.0 mi Calm Calm - N/A   Clear
2:55 PM 87.3 °F 88.9 °F 64.6 °F 47% 30.08 in 10.0 mi Calm Calm - N/A   Clear
3:15 PM 87.8 °F 89.4 °F 64.4 °F 46% 30.07 in 10.0 mi Calm Calm - N/A   Scattered Clouds
3:35 PM 86.2 °F 87.9 °F 64.8 °F 49% 30.06 in 10.0 mi Calm Calm - N/A   Clear
3:55 PM 87.4 °F 89.5 °F 65.3 °F 48% 30.05 in 10.0 mi Calm Calm - N/A   Clear
4:15 PM 88.3 °F 90.2 °F 65.3 °F 46% 30.05 in 10.0 mi Calm Calm - N/A   Scattered Clouds
4:35 PM 87.6 °F 89.7 °F 65.8 °F 48% 30.05 in 10.0 mi Calm Calm - N/A   Scattered Clouds
4:55 PM 84.7 °F 86.8 °F 65.8 °F 53% 30.04 in 10.0 mi Calm Calm - N/A   Clear
5:15 PM 83.5 °F 86.0 °F 66.9 °F 57% 30.04 in 10.0 mi Calm Calm - N/A   Clear
5:35 PM 82.2 °F 85.1 °F 67.8 °F 62% 30.04 in 10.0 mi Calm Calm - N/A   Clear
5:55 PM 81.1 °F 84.0 °F 68.2 °F 65% 30.04 in 10.0 mi Calm Calm - N/A   Clear
6:15 PM 80.6 °F 83.5 °F 68.5 °F 67% 30.03 in 10.0 mi Calm Calm - N/A   Clear
6:35 PM 79.9 °F - 69.1 °F 69% 30.04 in 10.0 mi Calm Calm - N/A   Clear
6:55 PM 79.0 °F - 70.0 °F 74% 30.05 in 10.0 mi Calm Calm - N/A   Clear
7:15 PM 78.1 °F - 69.8 °F 76% 30.06 in 10.0 mi Calm Calm - N/A   Clear
7:35 PM 77.2 °F - 69.8 °F 78% 30.06 in 10.0 mi Calm Calm - N/A   Clear
7:55 PM 77.2 °F - 69.4 °F 77% 30.07 in 10.0 mi Calm Calm - N/A   Clear
8:15 PM 75.2 °F - 70.0 °F 84% 30.07 in 10.0 mi Calm Calm - N/A   Clear
8:35 PM 75.2 °F - 70.9 °F 86% 30.07 in 10.0 mi Calm Calm - N/A   Clear
8:55 PM 76.1 °F - 69.8 °F 81% 30.07 in 10.0 mi Calm Calm - N/A   Clear
9:15 PM 76.1 °F - 68.0 °F 76% 30.07 in 10.0 mi Calm Calm - N/A   Clear
9:35 PM 75.4 °F - 67.3 °F 76% 30.08 in 10.0 mi Calm Calm - N/A   Clear
9:55 PM 74.8 °F - 66.6 °F 75% 30.08 in 10.0 mi Calm Calm - N/A   Clear
10:15 PM 74.3 °F - 66.4 °F 76% 30.08 in 10.0 mi Calm Calm - N/A   Clear
10:35 PM 73.9 °F - 66.4 °F 77% 30.09 in 10.0 mi Calm Calm - N/A   Clear
10:55 PM 73.4 °F - 66.0 °F 78% 30.10 in 10.0 mi Calm Calm - N/A   Clear
11:35 PM 72.5 °F - 65.3 °F 78% 30.10 in 10.0 mi Calm Calm - N/A   Clear
11:55 PM 72.0 °F - 65.3 °F 79% 30.11 in 10.0 mi Calm Calm - N/A   Clear